createdAt,value
2023-01-26T00:02:31.162Z,102172.72
2023-01-26T00:05:17.802Z,102182.16
2023-01-26T00:08:04.986Z,102168.78
2023-01-26T00:10:51.702Z,102172.47
2023-01-26T00:13:38.979Z,102174.59
2023-01-26T00:16:27.841Z,102173.97
2023-01-26T00:19:14.487Z,102167.97
2023-01-26T00:22:00.937Z,102167.72
2023-01-26T00:24:47.573Z,102161.88
2023-01-26T00:27:34.617Z,102168.22
2023-01-26T00:30:21.577Z,102152.56
2023-01-26T00:33:09.274Z,102152.25
2023-01-26T00:35:55.637Z,102150.44
2023-01-26T00:38:43.232Z,102145.91
2023-01-26T00:41:47.572Z,102139.25
2023-01-26T00:44:35.359Z,102144.22
2023-01-26T00:47:21.803Z,102147.84
2023-01-26T00:50:12.698Z,102141.22
2023-01-26T00:52:59.946Z,102142.03
2023-01-26T00:55:46.328Z,102142.72
2023-01-26T00:58:32.952Z,102136.03
2023-01-26T01:01:19.325Z,102140.59
2023-01-26T01:04:06.135Z,102138.66
2023-01-26T01:06:54.605Z,102134.88
2023-01-26T01:09:41.194Z,102123.41
2023-01-26T01:12:31.637Z,102128.22
2023-01-26T01:15:18.052Z,102130.22
2023-01-26T01:18:05.691Z,102131.09
2023-01-26T01:20:52.207Z,102125.63
2023-01-26T01:23:40.524Z,102117.59
2023-01-26T01:26:28.020Z,102122.78
2023-01-26T01:29:15.339Z,102119.97
2023-01-26T01:32:02.163Z,102123.81
2023-01-26T01:34:49.070Z,102112.94
2023-01-26T01:37:36.799Z,102108.72
2023-01-26T01:40:24.918Z,102113.06
2023-01-26T01:43:13.157Z,102114.06
2023-01-26T01:46:01.540Z,102118.00
2023-01-26T01:48:54.226Z,102110.94
2023-01-26T01:51:45.140Z,102110.34
2023-01-26T01:54:36.511Z,102117.53
2023-01-26T01:57:28.554Z,102107.53
2023-01-26T02:00:18.539Z,102113.69
2023-01-26T02:03:14.783Z,102116.44
2023-01-26T02:06:05.946Z,102108.84
2023-01-26T02:08:54.517Z,102106.22
2023-01-26T02:11:44.950Z,102098.91
2023-01-26T02:14:33.717Z,102111.78
2023-01-26T02:17:20.431Z,102092.78
2023-01-26T02:20:15.606Z,102087.31
2023-01-26T02:23:11.527Z,102091.28
2023-01-26T02:26:12.277Z,102103.69
2023-01-26T02:28:59.165Z,102104.31
2023-01-26T02:31:46.862Z,102104.19
2023-01-26T02:34:33.313Z,102104.47
2023-01-26T02:37:19.524Z,102122.97
2023-01-26T02:40:15.017Z,102124.34
2023-01-26T02:43:02.534Z,102109.84
2023-01-26T02:45:49.438Z,102105.88
2023-01-26T02:48:53.218Z,102099.97
2023-01-26T02:51:39.814Z,102105.94
2023-01-26T02:54:44.806Z,102105.22
2023-01-26T02:57:34.324Z,102106.63
2023-01-26T03:00:24.845Z,102110.56
2023-01-26T03:03:15.105Z,102119.31
2023-01-26T03:06:01.803Z,102119.66
2023-01-26T03:08:50.471Z,102128.19
2023-01-26T03:11:42.922Z,102129.63
2023-01-26T03:14:29.378Z,102131.78
2023-01-26T03:17:16.935Z,102123.19
2023-01-26T03:20:26.822Z,102109.41
2023-01-26T03:23:31.251Z,102109.28
2023-01-26T03:26:35.484Z,102115.53
2023-01-26T03:29:22.935Z,102111.13
2023-01-26T03:32:11.322Z,102112.88
2023-01-26T03:35:01.138Z,102106.59
2023-01-26T03:37:54.780Z,102115.66
2023-01-26T03:41:19.816Z,102109.72
2023-01-26T03:44:24.127Z,102113.13
2023-01-26T03:47:29.133Z,102106.53
2023-01-26T03:50:35.441Z,102096.28
2023-01-26T03:53:41.637Z,102104.22
2023-01-26T03:56:32.461Z,102086.88
2023-01-26T03:59:37.868Z,102106.75
2023-01-26T04:02:44.659Z,102104.94
2023-01-26T04:05:50.518Z,102114.50
2023-01-26T04:08:37.391Z,102109.94
2023-01-26T04:11:24.733Z,102101.66
2023-01-26T04:14:30.311Z,102094.66
2023-01-26T04:17:38.493Z,102098.06
2023-01-26T04:20:42.382Z,102111.31
2023-01-26T04:23:30.300Z,102114.53
2023-01-26T04:26:17.244Z,102111.03
2023-01-26T04:29:04.030Z,102109.19
2023-01-26T04:31:50.794Z,102098.28
2023-01-26T04:34:40.111Z,102105.91
2023-01-26T04:37:35.075Z,102111.19
2023-01-26T04:40:22.843Z,102095.28
2023-01-26T04:43:09.634Z,102106.59
2023-01-26T04:46:00.978Z,102112.06
2023-01-26T04:48:49.100Z,102105.66
2023-01-26T04:51:35.589Z,102092.69
2023-01-26T04:54:22.634Z,102093.31
2023-01-26T04:57:11.314Z,102083.66
2023-01-26T05:00:00.489Z,102099.25
2023-01-26T05:02:48.272Z,102099.50
2023-01-26T05:05:36.951Z,102101.22
2023-01-26T05:08:24.156Z,102096.81
2023-01-26T05:11:11.313Z,102115.56
2023-01-26T05:14:22.430Z,102119.78
2023-01-26T05:17:23.835Z,102106.25
2023-01-26T05:20:37.104Z,102113.59
2023-01-26T05:23:34.348Z,102111.28
2023-01-26T05:26:34.370Z,102099.22
2023-01-26T05:29:25.943Z,102105.09
2023-01-26T05:32:12.620Z,102123.59
2023-01-26T05:34:59.497Z,102118.81
2023-01-26T05:37:46.506Z,102135.56
2023-01-26T05:40:34.267Z,102126.91
2023-01-26T05:43:21.175Z,102139.09
2023-01-26T05:46:28.032Z,102146.75
2023-01-26T05:49:14.489Z,102146.97
2023-01-26T05:52:02.127Z,102139.38
2023-01-26T05:54:49.718Z,102138.88
2023-01-26T05:57:37.080Z,102139.09
2023-01-26T06:00:26.667Z,102160.47
2023-01-26T06:03:22.401Z,102166.50
2023-01-26T06:06:09.655Z,102161.25
2023-01-26T06:09:09.078Z,102149.66
2023-01-26T06:12:17.251Z,102151.75
2023-01-26T06:15:16.015Z,102159.63
2023-01-26T06:18:05.123Z,102148.09
2023-01-26T06:20:53.905Z,102158.75
2023-01-26T06:23:40.601Z,102179.44
2023-01-26T06:26:27.590Z,102177.94
2023-01-26T06:29:16.449Z,102179.66
2023-01-26T06:32:02.963Z,102175.47
2023-01-26T06:34:50.199Z,102189.44
2023-01-26T06:37:38.448Z,102198.53
2023-01-26T06:40:24.796Z,102186.44
2023-01-26T06:43:11.600Z,102180.47
2023-01-26T06:45:58.954Z,102181.63
2023-01-26T06:48:45.633Z,102192.44
2023-01-26T06:51:45.588Z,102190.72
2023-01-26T06:54:33.525Z,102192.91
2023-01-26T06:57:20.676Z,102209.78
2023-01-26T07:00:24.299Z,102215.88
2023-01-26T07:03:18.067Z,102211.13
2023-01-26T07:06:05.998Z,102219.38
2023-01-26T07:08:53.048Z,102213.13
2023-01-26T07:11:41.332Z,102223.22
2023-01-26T07:14:27.766Z,102236.00
2023-01-26T07:17:14.639Z,102254.38
2023-01-26T07:20:01.613Z,102264.59
2023-01-26T07:22:48.361Z,102268.31
2023-01-26T07:25:35.290Z,102294.06
2023-01-26T07:28:23.580Z,102282.50
2023-01-26T07:31:12.466Z,102263.25
2023-01-26T07:33:58.934Z,102248.25
2023-01-26T07:36:45.618Z,102263.53
2023-01-26T07:39:32.655Z,102275.47
2023-01-26T07:42:19.627Z,102288.94
2023-01-26T07:45:20.480Z,102297.91
2023-01-26T07:48:08.567Z,102261.44
2023-01-26T07:50:55.149Z,102240.94
2023-01-26T07:53:43.476Z,102230.22
2023-01-26T07:56:30.716Z,102223.34
2023-01-26T07:59:17.532Z,102207.81
2023-01-26T08:02:05.438Z,102195.25
2023-01-26T08:04:52.044Z,102210.59
2023-01-26T08:07:39.104Z,102218.97
2023-01-26T08:10:26.009Z,102196.31
2023-01-26T08:13:12.550Z,102189.16
2023-01-26T08:16:02.345Z,102189.09
2023-01-26T08:18:51.286Z,102183.72
2023-01-26T08:21:38.027Z,102179.50
2023-01-26T08:24:26.549Z,102167.25
2023-01-26T08:27:13.183Z,102160.94
2023-01-26T08:29:59.836Z,102174.97
2023-01-26T08:32:46.443Z,102172.06
2023-01-26T08:35:34.909Z,102171.91
2023-01-26T08:38:21.896Z,102173.19
2023-01-26T08:41:08.339Z,102182.03
2023-01-26T08:43:54.969Z,102202.66
2023-01-26T08:46:41.707Z,102189.63
2023-01-26T08:49:28.215Z,102184.91
2023-01-26T08:52:16.683Z,102169.00
2023-01-26T08:55:04.627Z,102171.00
2023-01-26T08:57:55.172Z,102155.72
2023-01-26T09:00:42.176Z,102176.09
2023-01-26T09:03:29.272Z,102184.16
2023-01-26T09:06:16.150Z,102194.59
2023-01-26T09:09:04.262Z,102193.56
2023-01-26T09:11:51.037Z,102207.91
2023-01-26T09:14:37.947Z,102207.69
2023-01-26T09:17:24.796Z,102188.19
2023-01-26T09:20:12.911Z,102166.38
2023-01-26T09:22:59.750Z,102174.75
2023-01-26T09:25:53.338Z,102176.88
2023-01-26T09:28:40.132Z,102193.88
2023-01-26T09:31:26.782Z,102189.03
2023-01-26T09:34:13.336Z,102195.44
2023-01-26T09:36:59.934Z,102207.16
2023-01-26T09:39:46.704Z,102217.59
2023-01-26T09:42:50.889Z,102221.91
2023-01-26T09:45:47.449Z,102245.28
2023-01-26T09:48:44.811Z,102249.72
2023-01-26T09:51:35.884Z,102272.13
2023-01-26T09:54:27.653Z,102258.06
2023-01-26T09:57:17.378Z,102241.75
2023-01-26T10:00:11.373Z,102234.53
2023-01-26T10:03:11.038Z,102229.03
2023-01-26T10:06:04.373Z,102218.66
2023-01-26T10:09:25.122Z,102210.28
2023-01-26T10:12:19.464Z,102213.13
2023-01-26T10:15:26.752Z,102209.31
2023-01-26T10:18:19.600Z,102196.47
2023-01-26T10:21:08.609Z,102202.59
2023-01-26T10:23:55.469Z,102183.97
2023-01-26T10:26:43.186Z,102194.34
2023-01-26T10:29:29.512Z,102196.53
2023-01-26T10:32:19.195Z,102191.25
2023-01-26T10:35:07.090Z,102198.84
2023-01-26T10:37:53.976Z,102189.78
2023-01-26T10:40:45.612Z,102192.19
2023-01-26T10:43:41.662Z,102191.75
2023-01-26T10:46:34.138Z,102198.72
2023-01-26T10:49:22.642Z,102197.06
2023-01-26T10:52:18.368Z,102203.19
2023-01-26T10:55:12.253Z,102203.97
2023-01-26T10:57:59.286Z,102210.38
2023-01-26T11:00:55.922Z,102203.72
2023-01-26T11:03:42.948Z,102203.19
2023-01-26T11:06:32.126Z,102208.59
2023-01-26T11:09:21.483Z,102203.44
2023-01-26T11:12:07.873Z,102197.88
2023-01-26T11:15:04.045Z,102192.72
2023-01-26T11:17:57.901Z,102189.41
2023-01-26T11:20:52.734Z,102182.84
2023-01-26T11:23:49.418Z,102180.22
2023-01-26T11:27:06.522Z,102176.84
2023-01-26T11:30:25.314Z,102173.00
2023-01-26T11:33:21.687Z,102172.06
2023-01-26T11:36:16.157Z,102174.66
2023-01-26T11:39:14.931Z,102174.25
2023-01-26T11:42:19.011Z,102169.69
2023-01-26T11:45:21.958Z,102165.00
2023-01-26T11:48:22.436Z,102168.03
2023-01-26T11:51:21.574Z,102167.91
2023-01-26T11:54:38.100Z,102159.94
2023-01-26T11:57:29.749Z,102168.81
2023-01-26T12:00:29.458Z,102164.47
2023-01-26T12:03:24.877Z,102165.94
2023-01-26T12:06:17.797Z,102167.91
2023-01-26T12:09:11.800Z,102164.97
2023-01-26T12:12:05.170Z,102160.03
2023-01-26T12:14:58.173Z,102161.56
2023-01-26T12:17:54.684Z,102153.22
2023-01-26T12:20:45.563Z,102154.81
2023-01-26T12:23:39.617Z,102155.53
2023-01-26T12:26:29.975Z,102168.38
2023-01-26T12:29:22.156Z,102161.66
2023-01-26T12:32:13.570Z,102167.13
2023-01-26T12:35:00.250Z,102166.94
2023-01-26T12:37:54.105Z,102166.25
2023-01-26T12:40:48.436Z,102163.34
2023-01-26T12:43:49.029Z,102149.47
2023-01-26T12:46:44.070Z,102148.34
2023-01-26T12:49:37.227Z,102143.97
2023-01-26T12:52:30.514Z,102150.00
2023-01-26T12:55:21.194Z,102158.22
2023-01-26T12:58:12.652Z,102163.59
2023-01-26T13:01:03.298Z,102160.97
2023-01-26T13:03:56.583Z,102150.28
2023-01-26T13:06:43.541Z,102159.78
2023-01-26T13:09:30.257Z,102160.06
2023-01-26T13:12:45.275Z,102157.56
2023-01-26T13:15:33.539Z,102154.84
2023-01-26T13:18:20.041Z,102154.13
2023-01-26T13:21:10.112Z,102156.03
2023-01-26T13:23:56.617Z,102167.59
2023-01-26T13:26:45.422Z,102164.38
2023-01-26T13:29:36.120Z,102171.38
2023-01-26T13:33:02.820Z,102169.28
2023-01-26T13:35:51.376Z,102172.38
2023-01-26T13:38:43.653Z,102158.28
2023-01-26T13:41:30.505Z,102159.28
2023-01-26T13:44:22.971Z,102161.66
2023-01-26T13:47:15.024Z,102165.34
2023-01-26T13:50:01.462Z,102165.47
2023-01-26T13:52:48.079Z,102161.66
2023-01-26T13:55:42.159Z,102170.72
2023-01-26T13:58:29.352Z,102183.47
2023-01-26T14:01:17.099Z,102181.53
2023-01-26T14:04:05.356Z,102180.72
2023-01-26T14:06:56.378Z,102174.72
2023-01-26T14:09:47.672Z,102170.13
2023-01-26T14:12:41.898Z,102180.44
2023-01-26T14:15:31.553Z,102174.00
2023-01-26T14:18:22.538Z,102177.06
2023-01-26T14:21:18.956Z,102171.66
2023-01-26T14:24:10.355Z,102175.59
2023-01-26T14:26:56.949Z,102171.00
2023-01-26T14:29:45.025Z,102169.50
2023-01-26T14:32:32.435Z,102160.78
2023-01-26T14:35:23.113Z,102168.06
2023-01-26T14:38:16.131Z,102173.41
2023-01-26T14:41:03.853Z,102157.31
2023-01-26T14:43:52.618Z,102165.34
2023-01-26T14:46:57.554Z,102169.78
2023-01-26T14:49:49.591Z,102183.81
2023-01-26T14:52:39.532Z,102168.38
2023-01-26T14:55:29.637Z,102165.00
2023-01-26T14:58:22.315Z,102171.59
2023-01-26T15:01:09.116Z,102168.81
2023-01-26T15:04:03.345Z,102184.56
2023-01-26T15:06:49.966Z,102188.25
2023-01-26T15:09:36.883Z,102191.50
2023-01-26T15:12:24.010Z,102178.56
2023-01-26T15:15:15.000Z,102184.38
2023-01-26T15:18:04.318Z,102188.88
2023-01-26T15:21:01.442Z,102178.91
2023-01-26T15:23:52.062Z,102177.69
2023-01-26T15:26:38.392Z,102181.84
2023-01-26T15:29:27.402Z,102187.38
2023-01-26T15:32:29.679Z,102186.28
2023-01-26T15:35:23.104Z,102185.13
2023-01-26T15:38:13.103Z,102187.91
2023-01-26T15:41:00.081Z,102188.84
2023-01-26T15:43:46.723Z,102180.66
2023-01-26T15:46:33.497Z,102183.41
2023-01-26T15:49:22.847Z,102185.41
2023-01-26T15:52:14.453Z,102189.47
2023-01-26T15:55:02.605Z,102184.50
2023-01-26T15:57:49.326Z,102189.25
2023-01-26T16:00:37.086Z,102194.69
2023-01-26T16:03:23.722Z,102201.97
2023-01-26T16:06:19.260Z,102200.44
2023-01-26T16:09:06.063Z,102212.47
2023-01-26T16:11:54.483Z,102219.47
2023-01-26T16:14:41.063Z,102223.09
2023-01-26T16:17:27.968Z,102241.25
2023-01-26T16:20:14.551Z,102263.47
2023-01-26T16:23:01.720Z,102268.16
2023-01-26T16:25:49.193Z,102266.47
2023-01-26T16:28:37.303Z,102259.34
2023-01-26T16:31:25.881Z,102259.78
2023-01-26T16:34:12.899Z,102267.19
2023-01-26T16:36:59.626Z,102266.66
2023-01-26T16:39:46.215Z,102291.16
2023-01-26T16:42:33.481Z,102274.47
2023-01-26T16:45:23.840Z,102253.59
2023-01-26T16:48:14.130Z,102238.19
2023-01-26T16:51:02.821Z,102226.84
2023-01-26T16:53:49.667Z,102228.03
2023-01-26T16:56:36.584Z,102220.81
2023-01-26T16:59:23.311Z,102210.13
2023-01-26T17:02:23.438Z,102220.47
2023-01-26T17:05:14.456Z,102217.88
2023-01-26T17:08:01.829Z,102209.22
2023-01-26T17:11:01.503Z,102205.06
2023-01-26T17:13:50.193Z,102213.34
2023-01-26T17:16:37.275Z,102215.16
2023-01-26T17:19:25.313Z,102205.66
2023-01-26T17:22:11.920Z,102207.63
2023-01-26T17:24:58.926Z,102210.34
2023-01-26T17:27:46.616Z,102198.13
2023-01-26T17:30:33.497Z,102202.25
2023-01-26T17:33:20.314Z,102201.00
2023-01-26T17:36:09.081Z,102192.28
2023-01-26T17:38:56.452Z,102192.16
2023-01-26T17:41:43.144Z,102193.72
2023-01-26T17:44:30.040Z,102185.88
2023-01-26T17:47:16.690Z,102185.47
2023-01-26T17:50:03.737Z,102192.00
2023-01-26T17:52:51.830Z,102190.56
2023-01-26T17:55:38.653Z,102192.28
2023-01-26T17:58:25.098Z,102181.78
2023-01-26T18:01:11.710Z,102189.03
2023-01-26T18:03:58.428Z,102193.72
2023-01-26T18:06:44.936Z,102192.16
2023-01-26T18:09:32.793Z,102194.28
2023-01-26T18:12:19.528Z,102195.28
2023-01-26T18:15:06.960Z,102190.47
2023-01-26T18:17:53.537Z,102188.19
2023-01-26T18:20:40.171Z,102192.44
2023-01-26T18:23:27.000Z,102188.31
2023-01-26T18:26:15.826Z,102185.19
2023-01-26T18:29:02.576Z,102183.06
2023-01-26T18:31:49.461Z,102178.78
2023-01-26T18:34:36.660Z,102179.22
2023-01-26T18:37:23.359Z,102190.72
2023-01-26T18:40:13.013Z,102193.03
2023-01-26T18:43:01.484Z,102188.47
2023-01-26T18:45:48.508Z,102189.72
2023-01-26T18:48:36.079Z,102192.44
2023-01-26T18:51:23.063Z,102184.03
2023-01-26T18:54:09.972Z,102189.88
2023-01-26T18:56:56.932Z,102190.16
2023-01-26T18:59:45.297Z,102187.47
2023-01-26T19:02:33.552Z,102180.75
2023-01-26T19:05:20.090Z,102175.84
2023-01-26T19:08:10.948Z,102180.22
2023-01-26T19:10:58.222Z,102175.25
2023-01-26T19:13:48.723Z,102170.25
2023-01-26T19:16:37.132Z,102181.91
2023-01-26T19:19:23.988Z,102180.53
2023-01-26T19:22:11.014Z,102186.63
2023-01-26T19:24:58.011Z,102190.13
2023-01-26T19:27:44.456Z,102189.13
2023-01-26T19:30:31.354Z,102185.59
2023-01-26T19:33:25.248Z,102187.31
2023-01-26T19:36:11.914Z,102185.16
2023-01-26T19:38:58.338Z,102186.59
2023-01-26T19:41:46.289Z,102187.88
2023-01-26T19:44:33.167Z,102201.25
2023-01-26T19:47:20.124Z,102204.69
2023-01-26T19:50:09.899Z,102210.78
2023-01-26T19:52:56.808Z,102206.69
2023-01-26T19:55:43.357Z,102211.78
2023-01-26T19:58:29.835Z,102201.81
2023-01-26T20:01:16.401Z,102210.47
2023-01-26T20:04:04.367Z,102208.94
2023-01-26T20:06:52.037Z,102213.66
2023-01-26T20:09:40.015Z,102221.56
2023-01-26T20:12:26.408Z,102207.06
2023-01-26T20:15:13.513Z,102205.50
2023-01-26T20:18:00.922Z,102209.34
2023-01-26T20:20:50.501Z,102202.94
2023-01-26T20:23:45.589Z,102191.13
2023-01-26T20:26:38.205Z,102205.09
2023-01-26T20:29:24.741Z,102205.13
2023-01-26T20:32:11.467Z,102209.63
2023-01-26T20:34:59.091Z,102207.06
2023-01-26T20:37:45.731Z,102208.28
2023-01-26T20:40:33.841Z,102215.09
2023-01-26T20:43:20.701Z,102219.69
2023-01-26T20:46:08.025Z,102219.84
2023-01-26T20:48:56.071Z,102223.75
2023-01-26T20:51:45.348Z,102225.69
2023-01-26T20:54:32.101Z,102205.66
2023-01-26T20:57:19.976Z,102200.31
2023-01-26T21:00:08.358Z,102194.53
2023-01-26T21:02:55.318Z,102197.06
2023-01-26T21:05:42.069Z,102197.00
2023-01-26T21:08:29.274Z,102187.28
2023-01-26T21:11:18.211Z,102188.91
2023-01-26T21:14:06.318Z,102192.78
2023-01-26T21:16:52.814Z,102188.91
2023-01-26T21:19:39.304Z,102180.78
2023-01-26T21:22:26.030Z,102185.59
2023-01-26T21:25:14.126Z,102180.38
2023-01-26T21:28:00.882Z,102175.09
2023-01-26T21:30:48.918Z,102181.28
2023-01-26T21:33:39.320Z,102184.03
2023-01-26T21:36:27.619Z,102176.25
2023-01-26T21:39:15.275Z,102186.41
2023-01-26T21:42:01.580Z,102183.84
2023-01-26T21:45:06.469Z,102182.56
2023-01-26T21:48:08.412Z,102180.59
2023-01-26T21:51:13.688Z,102182.84
2023-01-26T21:54:00.723Z,102191.91
2023-01-26T21:56:47.511Z,102196.69
2023-01-26T21:59:32.794Z,102193.88
2023-01-26T22:02:19.450Z,102192.94
2023-01-26T22:05:08.864Z,102198.00
2023-01-26T22:07:56.729Z,102188.25
2023-01-26T22:10:43.393Z,102196.19
2023-01-26T22:13:30.826Z,102189.03
2023-01-26T22:16:17.418Z,102195.19
2023-01-26T22:19:03.937Z,102200.09
2023-01-26T22:21:51.773Z,102203.16
2023-01-26T22:24:38.678Z,102198.41
2023-01-26T22:27:24.965Z,102197.34
2023-01-26T22:30:12.917Z,102195.34
2023-01-26T22:32:59.726Z,102199.38
2023-01-26T22:35:46.410Z,102205.03
2023-01-26T22:38:35.826Z,102205.69
2023-01-26T22:41:24.192Z,102203.72
2023-01-26T22:44:10.662Z,102205.50
2023-01-26T22:46:57.153Z,102215.31
2023-01-26T22:49:43.800Z,102212.47
2023-01-26T22:52:30.570Z,102209.41
2023-01-26T22:55:18.712Z,102210.16
2023-01-26T22:58:05.232Z,102217.94
2023-01-26T23:04:17.466Z,102208.19
2023-01-26T23:07:04.374Z,102213.53
2023-01-26T23:09:50.842Z,102207.41
2023-01-26T23:12:38.786Z,102203.44
2023-01-26T23:15:25.492Z,102215.81
2023-01-26T23:18:11.953Z,102205.63
2023-01-26T23:20:59.373Z,102196.59
2023-01-26T23:23:46.107Z,102192.69
2023-01-26T23:26:32.611Z,102199.00
2023-01-26T23:29:20.521Z,102194.06
2023-01-26T23:32:07.305Z,102194.53
2023-01-26T23:34:53.831Z,102191.44
2023-01-26T23:37:40.395Z,102186.88
2023-01-26T23:40:27.031Z,102186.47
2023-01-26T23:43:16.980Z,102178.72
2023-01-26T23:46:07.134Z,102182.34
2023-01-26T23:48:53.449Z,102181.06
2023-01-26T23:51:40.084Z,102178.06
2023-01-26T23:54:26.667Z,102175.97
2023-01-26T23:57:13.224Z,102177.78
2023-01-26T23:59:59.712Z,102177.06
